createdAt,value
2023-01-12T00:04:39.804Z,7.70
2023-01-12T00:09:42.993Z,7.76
2023-01-12T00:14:47.100Z,7.77
2023-01-12T00:19:51.354Z,7.76
2023-01-12T00:24:55.822Z,7.79
2023-01-12T00:29:59.926Z,7.82
2023-01-12T00:35:02.689Z,7.85
2023-01-12T00:40:07.782Z,7.86
2023-01-12T00:45:24.882Z,7.85
2023-01-12T00:50:27.913Z,7.87
2023-01-12T00:55:30.782Z,7.86
2023-01-12T01:00:34.920Z,7.86
2023-01-12T01:05:37.828Z,7.85
2023-01-12T01:10:40.621Z,7.85
2023-01-12T01:15:44.868Z,7.83
2023-01-12T01:20:48.280Z,7.73
2023-01-12T01:25:51.410Z,7.60
2023-01-12T01:31:04.384Z,7.58
2023-01-12T01:36:07.327Z,7.52
2023-01-12T01:41:18.303Z,7.50
2023-01-12T01:46:30.641Z,7.49
2023-01-12T01:51:33.505Z,7.50
2023-01-12T01:56:37.340Z,7.47
2023-01-12T02:01:41.637Z,7.49
2023-01-12T02:06:44.935Z,7.51
2023-01-12T02:12:05.705Z,7.53
2023-01-12T02:17:28.376Z,7.62
2023-01-12T02:23:19.150Z,7.58
2023-01-12T02:28:50.872Z,7.62
2023-01-12T02:34:06.358Z,7.68
2023-01-12T02:39:14.144Z,7.72
2023-01-12T02:44:25.036Z,7.74
2023-01-12T02:49:35.672Z,7.75
2023-01-12T02:54:41.223Z,7.77
2023-01-12T02:59:46.625Z,7.84
2023-01-12T03:04:51.164Z,7.83
2023-01-12T03:09:59.572Z,7.90
2023-01-12T03:15:06.755Z,7.96
2023-01-12T03:20:14.395Z,7.93
2023-01-12T03:25:19.187Z,7.96
2023-01-12T03:30:27.395Z,7.97
2023-01-12T03:35:36.372Z,7.97
2023-01-12T03:40:43.587Z,8.00
2023-01-12T03:45:49.130Z,8.01
2023-01-12T03:50:56.854Z,8.00
2023-01-12T03:56:05.483Z,8.05
2023-01-12T04:01:08.476Z,8.05
2023-01-12T04:06:12.655Z,8.05
2023-01-12T04:11:32.933Z,8.04
2023-01-12T04:16:35.750Z,8.06
2023-01-12T04:21:57.110Z,8.10
2023-01-12T04:26:59.826Z,8.13
2023-01-12T04:32:02.665Z,8.13
2023-01-12T04:37:06.771Z,8.20
2023-01-12T04:42:29.907Z,8.16
2023-01-12T04:47:34.147Z,8.14
2023-01-12T04:52:38.841Z,8.20
2023-01-12T04:57:41.605Z,8.24
2023-01-12T05:02:44.376Z,8.18
2023-01-12T05:08:02.514Z,8.19
2023-01-12T05:13:05.515Z,8.19
2023-01-12T05:18:08.300Z,8.21
2023-01-12T05:23:12.436Z,8.21
2023-01-12T05:28:15.660Z,8.22
2023-01-12T05:33:19.427Z,8.21
2023-01-12T05:38:25.275Z,8.23
2023-01-12T05:43:45.903Z,8.26
2023-01-12T05:48:49.378Z,8.26
2023-01-12T05:53:53.857Z,8.23
2023-01-12T05:58:58.353Z,8.20
2023-01-12T06:04:02.427Z,8.12
2023-01-12T06:09:07.608Z,8.03
2023-01-12T06:14:11.591Z,7.97
2023-01-12T06:19:14.675Z,7.97
2023-01-12T06:24:19.150Z,7.92
2023-01-12T06:29:22.347Z,7.91
2023-01-12T06:34:25.120Z,7.91
2023-01-12T06:39:29.326Z,7.96
2023-01-12T06:44:32.597Z,7.91
2023-01-12T06:49:36.606Z,7.90
2023-01-12T06:54:41.624Z,7.84
2023-01-12T06:59:44.562Z,7.82
2023-01-12T07:04:47.397Z,7.81
2023-01-12T07:09:51.704Z,7.75
2023-01-12T07:14:56.234Z,7.76
2023-01-12T07:19:59.263Z,7.62
2023-01-12T07:25:03.440Z,7.54
2023-01-12T07:30:07.107Z,7.50
2023-01-12T07:35:12.299Z,7.44
2023-01-12T07:40:17.254Z,7.30
2023-01-12T07:45:20.039Z,7.27
2023-01-12T07:50:23.692Z,7.23
2023-01-12T07:55:28.131Z,7.18
2023-01-12T08:00:34.432Z,7.18
2023-01-12T08:05:39.050Z,7.16
2023-01-12T08:10:45.651Z,7.17
2023-01-12T08:15:51.699Z,7.17
2023-01-12T08:20:57.671Z,7.15
2023-01-12T08:26:05.500Z,7.17
2023-01-12T08:31:13.896Z,7.18
2023-01-12T08:36:20.072Z,7.18
2023-01-12T08:41:37.671Z,7.19
2023-01-12T08:46:47.014Z,7.22
2023-01-12T08:51:49.955Z,7.25
2023-01-12T08:56:54.833Z,7.28
2023-01-12T09:01:57.757Z,7.32
2023-01-12T09:07:01.044Z,7.36
2023-01-12T09:12:05.711Z,7.37
2023-01-12T09:17:08.584Z,7.42
2023-01-12T09:22:12.165Z,7.45
2023-01-12T09:27:16.710Z,7.47
2023-01-12T09:32:26.053Z,7.52
2023-01-12T09:37:32.786Z,7.54
2023-01-12T09:42:55.713Z,7.60
2023-01-12T09:48:02.735Z,7.65
2023-01-12T09:53:18.041Z,7.71
2023-01-12T09:58:39.837Z,7.72
2023-01-12T10:03:44.813Z,7.72
2023-01-12T10:08:50.836Z,7.78
2023-01-12T10:14:27.958Z,7.81
2023-01-12T10:19:41.850Z,7.82
2023-01-12T10:24:46.235Z,7.88
2023-01-12T10:29:51.319Z,7.89
2023-01-12T10:34:55.865Z,7.94
2023-01-12T10:40:54.423Z,7.98
2023-01-12T10:46:17.858Z,7.99
2023-01-12T10:51:28.163Z,8.04
2023-01-12T10:56:37.972Z,8.08
2023-01-12T11:01:51.880Z,8.10
2023-01-12T11:07:05.079Z,8.18
2023-01-12T11:12:21.827Z,8.18
2023-01-12T11:17:44.679Z,8.19
2023-01-12T11:22:52.549Z,8.19
2023-01-12T11:28:01.743Z,8.22
2023-01-12T11:33:13.617Z,8.23
2023-01-12T11:38:22.018Z,8.24
2023-01-12T11:43:55.996Z,8.27
2023-01-12T11:49:06.971Z,8.31
2023-01-12T11:54:17.577Z,8.32
2023-01-12T11:59:27.925Z,8.31
2023-01-12T12:04:47.239Z,8.33
2023-01-12T12:10:16.408Z,8.37
2023-01-12T12:15:29.726Z,8.38
2023-01-12T12:20:40.632Z,8.39
2023-01-12T12:25:53.779Z,8.40
2023-01-12T12:31:28.705Z,8.42
2023-01-12T12:36:36.206Z,8.46
2023-01-12T12:42:11.567Z,8.45
2023-01-12T12:47:42.134Z,8.45
2023-01-12T12:52:47.421Z,8.47
2023-01-12T12:58:03.004Z,8.44
2023-01-12T13:03:05.967Z,8.41
2023-01-12T13:08:24.533Z,8.42
2023-01-12T13:13:32.115Z,8.40
2023-01-12T13:19:04.729Z,8.41
2023-01-12T13:24:27.808Z,8.41
2023-01-12T13:29:49.569Z,8.34
2023-01-12T13:34:53.755Z,8.34
2023-01-12T13:40:05.105Z,8.37
2023-01-12T13:45:11.542Z,8.35
2023-01-12T13:50:20.933Z,8.36
2023-01-12T13:55:29.539Z,8.36
2023-01-12T14:00:34.427Z,8.37
2023-01-12T14:06:03.886Z,8.42
2023-01-12T14:11:21.121Z,8.40
2023-01-12T14:16:41.313Z,8.43
2023-01-12T14:21:57.786Z,8.41
2023-01-12T14:27:01.211Z,8.46
2023-01-12T14:32:04.044Z,8.46
2023-01-12T14:37:34.216Z,8.46
2023-01-12T14:43:03.818Z,8.54
2023-01-12T14:48:21.024Z,8.68
2023-01-12T14:53:33.820Z,8.77
2023-01-12T14:58:37.512Z,8.82
2023-01-12T15:03:48.357Z,8.88
2023-01-12T15:08:57.978Z,8.94
2023-01-12T15:14:01.867Z,9.00
2023-01-12T15:19:22.800Z,9.03
2023-01-12T15:24:46.839Z,9.07
2023-01-12T15:29:49.690Z,9.12
2023-01-12T15:34:52.991Z,9.14
2023-01-12T15:39:59.804Z,9.16
2023-01-12T15:45:02.666Z,9.11
2023-01-12T15:50:06.257Z,9.16
2023-01-12T15:55:17.673Z,9.18
2023-01-12T16:00:22.821Z,9.18
2023-01-12T16:05:27.069Z,9.24
2023-01-12T16:10:31.369Z,9.27
2023-01-12T16:15:34.123Z,9.26
2023-01-12T16:20:37.498Z,9.26
2023-01-12T16:25:41.862Z,9.25
2023-01-12T16:30:48.170Z,9.21
2023-01-12T16:35:55.720Z,9.18
2023-01-12T16:41:00.290Z,9.19
2023-01-12T16:46:03.744Z,9.19
2023-01-12T16:51:11.663Z,9.20
2023-01-12T16:56:17.223Z,9.21
2023-01-12T17:01:22.416Z,9.24
2023-01-12T17:06:27.232Z,9.21
2023-01-12T17:11:32.672Z,9.26
2023-01-12T17:16:35.443Z,9.22
2023-01-12T17:21:38.451Z,9.31
2023-01-12T17:26:43.586Z,9.31
2023-01-12T17:31:46.374Z,9.32
2023-01-12T17:36:49.474Z,9.31
2023-01-12T17:42:11.666Z,9.29
2023-01-12T17:47:14.411Z,9.32
2023-01-12T17:52:17.548Z,9.33
2023-01-12T17:57:22.069Z,9.28
2023-01-12T18:02:24.845Z,9.27
2023-01-12T18:07:28.794Z,9.26
2023-01-12T18:12:33.622Z,9.22
2023-01-12T18:17:36.644Z,9.23
2023-01-12T18:22:39.940Z,9.18
2023-01-12T18:27:45.550Z,9.18
2023-01-12T18:32:49.012Z,9.18
2023-01-12T18:37:51.812Z,9.20
2023-01-12T18:42:58.211Z,9.17
2023-01-12T18:48:18.538Z,9.16
2023-01-12T18:53:25.541Z,9.18
2023-01-12T18:58:31.710Z,9.17
2023-01-12T19:03:35.248Z,9.15
2023-01-12T19:08:55.628Z,9.14
2023-01-12T19:14:17.246Z,9.14
2023-01-12T19:19:23.449Z,9.09
2023-01-12T19:24:44.120Z,9.07
2023-01-12T19:29:48.468Z,9.05
2023-01-12T19:34:56.333Z,9.06
2023-01-12T19:40:02.944Z,9.05
2023-01-12T19:45:10.003Z,9.05
2023-01-12T19:50:15.586Z,9.03
2023-01-12T19:55:18.661Z,8.99
2023-01-12T20:00:23.140Z,8.94
2023-01-12T20:05:25.939Z,8.90
2023-01-12T20:10:28.758Z,8.86
2023-01-12T20:15:33.160Z,8.84
2023-01-12T20:20:36.033Z,8.84
2023-01-12T20:25:41.027Z,8.82
2023-01-12T20:30:45.207Z,8.82
2023-01-12T20:35:50.047Z,8.84
2023-01-12T20:40:53.022Z,8.86
2023-01-12T20:45:57.106Z,8.88
2023-01-12T20:51:01.160Z,8.89
2023-01-12T20:56:05.112Z,8.94
2023-01-12T21:01:13.946Z,8.96
2023-01-12T21:06:18.238Z,8.96
2023-01-12T21:11:21.939Z,9.00
2023-01-12T21:16:26.060Z,9.04
2023-01-12T21:21:28.830Z,9.04
2023-01-12T21:26:31.772Z,9.06
2023-01-12T21:31:36.661Z,9.10
2023-01-12T21:36:39.940Z,9.13
2023-01-12T21:42:00.157Z,9.16
2023-01-12T21:47:04.516Z,9.11
2023-01-12T21:52:08.204Z,9.16
2023-01-12T21:57:11.750Z,9.15
2023-01-12T22:02:16.084Z,9.25
2023-01-12T22:07:19.053Z,9.28
2023-01-12T22:12:22.269Z,9.34
2023-01-12T22:17:26.423Z,9.30
2023-01-12T22:22:29.537Z,9.34
2023-01-12T22:27:32.429Z,9.34
2023-01-12T22:32:36.640Z,9.34
2023-01-12T22:37:40.947Z,9.35
2023-01-12T22:43:01.617Z,9.37
2023-01-12T22:48:06.480Z,9.45
2023-01-12T22:53:09.735Z,9.42
2023-01-12T22:58:12.484Z,9.51
2023-01-12T23:03:16.850Z,9.45
2023-01-12T23:08:19.684Z,9.43
2023-01-12T23:13:22.384Z,9.43
2023-01-12T23:18:28.631Z,9.43
2023-01-12T23:23:31.962Z,9.43
2023-01-12T23:28:38.857Z,9.51
2023-01-12T23:33:43.564Z,9.49
2023-01-12T23:38:46.633Z,9.50
2023-01-12T23:43:51.908Z,9.50
2023-01-12T23:48:57.927Z,9.50
2023-01-12T23:54:02.615Z,9.55
2023-01-12T23:59:05.380Z,9.50
